<?xml version="1.0" encoding="UTF-8" standalone="no" ?>
<gpx xmlns="http://www.topografix.com/GPX/1/1" xmlns:xsi="http://www.w3.org/2001/XMLSchema-instance" xsi:schemaLocation="http://www.topografix.com/GPX/1/1 http://www.topografix.com/GPX/1/1/gpx.xsd" version="1.1" creator="VisuGPX - https://www.visugpx.com">
  <metadata>
    <name>Edirne-Zagreb</name>
  </metadata>
  <trk>
    <name><![CDATA[Tour d'Europe: étape 651]]></name>
    <extensions>
      <line xmlns="http://www.topografix.com/GPX/gpx_style/0/2">
        <color>880000</color>
        <width>4</width>
      </line>
    </extensions>
    <trkseg>
      <trkpt lat="42.20188" lon="22.33429">
        <ele>694.661711</ele>
        <time>2022-04-10T07:50:49.284Z</time>
      </trkpt>
      <trkpt lat="42.20056" lon="22.33395">
        <ele>694.673191</ele>
        <time>2022-04-10T08:17:40.007Z</time>
      </trkpt>
      <trkpt lat="42.19961" lon="22.33104">
        <ele>693.329389</ele>
        <time>2022-04-10T08:18:26.003Z</time>
      </trkpt>
      <trkpt lat="42.19925" lon="22.32832">
        <ele>688.781744</ele>
        <time>2022-04-10T08:19:34.024Z</time>
      </trkpt>
      <trkpt lat="42.19831" lon="22.32553">
        <ele>691.681632</ele>
        <time>2022-04-10T08:20:33.020Z</time>
      </trkpt>
      <trkpt lat="42.1973" lon="22.32286">
        <ele>689.301528</ele>
        <time>2022-04-10T08:21:36.004Z</time>
      </trkpt>
      <trkpt lat="42.19617" lon="22.32021">
        <ele>688.209806</ele>
        <time>2022-04-10T08:22:31.035Z</time>
      </trkpt>
      <trkpt lat="42.19502" lon="22.31763">
        <ele>678.899205</ele>
        <time>2022-04-10T08:23:12.013Z</time>
      </trkpt>
      <trkpt lat="42.1942" lon="22.31488">
        <ele>677.887619</ele>
        <time>2022-04-10T08:24:13.023Z</time>
      </trkpt>
      <trkpt lat="42.19276" lon="22.31296">
        <ele>683.569436</ele>
        <time>2022-04-10T08:25:17.059Z</time>
      </trkpt>
      <trkpt lat="42.1919" lon="22.30954">
        <ele>666.414005</ele>
        <time>2022-04-10T08:25:59.024Z</time>
      </trkpt>
      <trkpt lat="42.1908" lon="22.30713">
        <ele>660.874125</ele>
        <time>2022-04-10T08:26:42.027Z</time>
      </trkpt>
      <trkpt lat="42.18935" lon="22.30551">
        <ele>678.040914</ele>
        <time>2022-04-10T08:28:35.019Z</time>
      </trkpt>
      <trkpt lat="42.18757" lon="22.30364">
        <ele>680.237641</ele>
        <time>2022-04-10T08:30:03.015Z</time>
      </trkpt>
      <trkpt lat="42.18606" lon="22.30111">
        <ele>686.303305</ele>
        <time>2022-04-10T08:31:42.032Z</time>
      </trkpt>
      <trkpt lat="42.18494" lon="22.29887">
        <ele>696.692947</ele>
        <time>2022-04-10T08:33:18.036Z</time>
      </trkpt>
      <trkpt lat="42.18373" lon="22.29656">
        <ele>702.882268</ele>
        <time>2022-04-10T08:34:47.036Z</time>
      </trkpt>
      <trkpt lat="42.18273" lon="22.29443">
        <ele>709.098793</ele>
        <time>2022-04-10T08:36:20.019Z</time>
      </trkpt>
      <trkpt lat="42.18224" lon="22.29133">
        <ele>704.607839</ele>
        <time>2022-04-10T08:37:26.015Z</time>
      </trkpt>
      <trkpt lat="42.18163" lon="22.288">
        <ele>691.192705</ele>
        <time>2022-04-10T08:38:07.050Z</time>
      </trkpt>
      <trkpt lat="42.18107" lon="22.28485">
        <ele>685.192168</ele>
        <time>2022-04-10T08:39:06.018Z</time>
      </trkpt>
      <trkpt lat="42.18017" lon="22.28166">
        <ele>674.030081</ele>
        <time>2022-04-10T08:39:56.030Z</time>
      </trkpt>
      <trkpt lat="42.17939" lon="22.27904">
        <ele>671.957851</ele>
        <time>2022-04-10T08:40:47.028Z</time>
      </trkpt>
      <trkpt lat="42.1786" lon="22.2761">
        <ele>663.419972</ele>
        <time>2022-04-10T08:41:41.018Z</time>
      </trkpt>
      <trkpt lat="42.17763" lon="22.27303">
        <ele>651.285699</ele>
        <time>2022-04-10T08:42:31.043Z</time>
      </trkpt>
      <trkpt lat="42.17674" lon="22.2702">
        <ele>650.501126</ele>
        <time>2022-04-10T08:43:35.042Z</time>
      </trkpt>
      <trkpt lat="42.17655" lon="22.26766">
        <ele>644.883059</ele>
        <time>2022-04-10T08:44:45.023Z</time>
      </trkpt>
      <trkpt lat="42.17678" lon="22.26527">
        <ele>630.02424</ele>
        <time>2022-04-10T08:45:28.043Z</time>
      </trkpt>
      <trkpt lat="42.17876" lon="22.26392">
        <ele>616.49012</ele>
        <time>2022-04-10T08:46:18.032Z</time>
      </trkpt>
      <trkpt lat="42.17882" lon="22.26126">
        <ele>612.876697</ele>
        <time>2022-04-10T08:47:13.036Z</time>
      </trkpt>
      <trkpt lat="42.177" lon="22.2592">
        <ele>610.703055</ele>
        <time>2022-04-10T08:47:58.039Z</time>
      </trkpt>
      <trkpt lat="42.17663" lon="22.25624">
        <ele>605.439523</ele>
        <time>2022-04-10T08:48:41.036Z</time>
      </trkpt>
      <trkpt lat="42.17656" lon="22.25246">
        <ele>602.103024</ele>
        <time>2022-04-10T08:49:30.042Z</time>
      </trkpt>
      <trkpt lat="42.17655" lon="22.24957">
        <ele>602.348139</ele>
        <time>2022-04-10T08:50:18.060Z</time>
      </trkpt>
      <trkpt lat="42.17643" lon="22.24554">
        <ele>592.736691</ele>
        <time>2022-04-10T08:51:00.090Z</time>
      </trkpt>
      <trkpt lat="42.17681" lon="22.24195">
        <ele>588.436475</ele>
        <time>2022-04-10T08:51:40.045Z</time>
      </trkpt>
      <trkpt lat="42.1765" lon="22.23857">
        <ele>587.003528</ele>
        <time>2022-04-10T08:52:22.071Z</time>
      </trkpt>
      <trkpt lat="42.17504" lon="22.23636">
        <ele>587.792946</ele>
        <time>2022-04-10T08:53:02.075Z</time>
      </trkpt>
      <trkpt lat="42.17357" lon="22.23381">
        <ele>594.936726</ele>
        <time>2022-04-10T08:54:00.036Z</time>
      </trkpt>
      <trkpt lat="42.17326" lon="22.231">
        <ele>591.351351</ele>
        <time>2022-04-10T08:54:42.035Z</time>
      </trkpt>
      <trkpt lat="42.1724" lon="22.22832">
        <ele>584.295552</ele>
        <time>2022-04-10T08:55:26.046Z</time>
      </trkpt>
      <trkpt lat="42.17246" lon="22.22556">
        <ele>581.612267</ele>
        <time>2022-04-10T08:56:06.044Z</time>
      </trkpt>
      <trkpt lat="42.17402" lon="22.224">
        <ele>583.438282</ele>
        <time>2022-04-10T08:56:50.040Z</time>
      </trkpt>
      <trkpt lat="42.17466" lon="22.22215">
        <ele>576.076556</ele>
        <time>2022-04-10T08:57:31.034Z</time>
      </trkpt>
      <trkpt lat="42.17352" lon="22.2199">
        <ele>572.756743</ele>
        <time>2022-04-10T08:58:15.073Z</time>
      </trkpt>
      <trkpt lat="42.17207" lon="22.21756">
        <ele>568.80285</ele>
        <time>2022-04-10T08:58:55.016Z</time>
      </trkpt>
      <trkpt lat="42.1715" lon="22.21506">
        <ele>563.156931</ele>
        <time>2022-04-10T08:59:37.034Z</time>
      </trkpt>
      <trkpt lat="42.17246" lon="22.21249">
        <ele>562.941837</ele>
        <time>2022-04-10T09:00:21.044Z</time>
      </trkpt>
      <trkpt lat="42.17217" lon="22.20937">
        <ele>559.62437</ele>
        <time>2022-04-10T09:01:05.053Z</time>
      </trkpt>
      <trkpt lat="42.17231" lon="22.20634">
        <ele>554.732285</ele>
        <time>2022-04-10T09:01:45.038Z</time>
      </trkpt>
      <trkpt lat="42.17212" lon="22.20339">
        <ele>550.176608</ele>
        <time>2022-04-10T09:02:30.044Z</time>
      </trkpt>
      <trkpt lat="42.17215" lon="22.20087">
        <ele>550.289995</ele>
        <time>2022-04-10T09:03:10.038Z</time>
      </trkpt>
      <trkpt lat="42.17267" lon="22.19771">
        <ele>550.075333</ele>
        <time>2022-04-10T09:03:52.056Z</time>
      </trkpt>
      <trkpt lat="42.17235" lon="22.19499">
        <ele>546.950238</ele>
        <time>2022-04-10T09:04:32.037Z</time>
      </trkpt>
      <trkpt lat="42.17199" lon="22.19192">
        <ele>542.345664</ele>
        <time>2022-04-10T09:05:14.038Z</time>
      </trkpt>
      <trkpt lat="42.17179" lon="22.18876">
        <ele>537.645353</ele>
        <time>2022-04-10T09:05:54.040Z</time>
      </trkpt>
      <trkpt lat="42.17156" lon="22.18555">
        <ele>535.613752</ele>
        <time>2022-04-10T09:06:36.033Z</time>
      </trkpt>
      <trkpt lat="42.1714" lon="22.18238">
        <ele>533.216631</ele>
        <time>2022-04-10T09:07:16.074Z</time>
      </trkpt>
      <trkpt lat="42.1712" lon="22.1792">
        <ele>530.52561</ele>
        <time>2022-04-10T09:07:58.035Z</time>
      </trkpt>
      <trkpt lat="42.17103" lon="22.17621">
        <ele>528.36433</ele>
        <time>2022-04-10T09:08:38.034Z</time>
      </trkpt>
      <trkpt lat="42.17085" lon="22.17315">
        <ele>530.238317</ele>
        <time>2022-04-10T09:09:25.054Z</time>
      </trkpt>
      <trkpt lat="42.17067" lon="22.1699">
        <ele>527.17393</ele>
        <time>2022-04-10T09:10:09.046Z</time>
      </trkpt>
      <trkpt lat="42.17051" lon="22.16701">
        <ele>524.433885</ele>
        <time>2022-04-10T09:10:50.051Z</time>
      </trkpt>
      <trkpt lat="42.17035" lon="22.16419">
        <ele>525.524168</ele>
        <time>2022-04-10T09:11:32.027Z</time>
      </trkpt>
      <trkpt lat="42.17019" lon="22.16142">
        <ele>525.156029</ele>
        <time>2022-04-10T09:12:16.035Z</time>
      </trkpt>
      <trkpt lat="42.17001" lon="22.15846">
        <ele>523.303916</ele>
        <time>2022-04-10T09:13:01.059Z</time>
      </trkpt>
      <trkpt lat="42.16986" lon="22.15557">
        <ele>519.092523</ele>
        <time>2022-04-10T09:13:41.074Z</time>
      </trkpt>
      <trkpt lat="42.16969" lon="22.15276">
        <ele>516.021695</ele>
        <time>2022-04-10T09:14:23.035Z</time>
      </trkpt>
      <trkpt lat="42.16953" lon="22.14996">
        <ele>515.30393</ele>
        <time>2022-04-10T09:15:07.057Z</time>
      </trkpt>
      <trkpt lat="42.16937" lon="22.14682">
        <ele>517.122188</ele>
        <time>2022-04-10T09:15:59.042Z</time>
      </trkpt>
      <trkpt lat="42.16917" lon="22.14358">
        <ele>517.260314</ele>
        <time>2022-04-10T09:16:58.025Z</time>
      </trkpt>
      <trkpt lat="42.16899" lon="22.14048">
        <ele>515.589182</ele>
        <time>2022-04-10T09:17:48.054Z</time>
      </trkpt>
      <trkpt lat="42.16882" lon="22.13768">
        <ele>512.674808</ele>
        <time>2022-04-10T09:18:28.023Z</time>
      </trkpt>
      <trkpt lat="42.16867" lon="22.1349">
        <ele>513.368843</ele>
        <time>2022-04-10T09:19:13.053Z</time>
      </trkpt>
      <trkpt lat="42.16848" lon="22.13169">
        <ele>517.901201</ele>
        <time>2022-04-10T09:20:13.029Z</time>
      </trkpt>
      <trkpt lat="42.1683" lon="22.12837">
        <ele>519.373599</ele>
        <time>2022-04-10T09:21:16.081Z</time>
      </trkpt>
      <trkpt lat="42.16813" lon="22.12561">
        <ele>521.242318</ele>
        <time>2022-04-10T09:22:16.056Z</time>
      </trkpt>
      <trkpt lat="42.16792" lon="22.12232">
        <ele>518.428374</ele>
        <time>2022-04-10T09:23:01.041Z</time>
      </trkpt>
      <trkpt lat="42.16772" lon="22.11906">
        <ele>517.791816</ele>
        <time>2022-04-10T09:24:00.039Z</time>
      </trkpt>
      <trkpt lat="42.16756" lon="22.11602">
        <ele>526.854949</ele>
        <time>2022-04-10T09:25:23.078Z</time>
      </trkpt>
      <trkpt lat="42.16743" lon="22.11345">
        <ele>538.011986</ele>
        <time>2022-04-10T09:27:16.057Z</time>
      </trkpt>
      <trkpt lat="42.16722" lon="22.11058">
        <ele>541.166457</ele>
        <time>2022-04-10T09:29:04.040Z</time>
      </trkpt>
      <trkpt lat="42.16699" lon="22.10784">
        <ele>541.057444</ele>
        <time>2022-04-10T09:30:18.022Z</time>
      </trkpt>
      <trkpt lat="42.16685" lon="22.10497">
        <ele>545.151102</ele>
        <time>2022-04-10T09:31:38.037Z</time>
      </trkpt>
      <trkpt lat="42.16666" lon="22.10235">
        <ele>549.209054</ele>
        <time>2022-04-10T09:33:04.071Z</time>
      </trkpt>
      <trkpt lat="42.1665" lon="22.09956">
        <ele>559.583306</ele>
        <time>2022-04-10T09:35:01.047Z</time>
      </trkpt>
      <trkpt lat="42.16631" lon="22.09692">
        <ele>569.647088</ele>
        <time>2022-04-10T09:36:51.121Z</time>
      </trkpt>
      <trkpt lat="42.16708" lon="22.0944">
        <ele>579.770601</ele>
        <time>2022-04-10T09:38:52.053Z</time>
      </trkpt>
      <trkpt lat="42.16731" lon="22.09261">
        <ele>586.202249</ele>
        <time>2022-04-10T09:40:52.034Z</time>
      </trkpt>
      <trkpt lat="42.16597" lon="22.0911">
        <ele>587.36709</ele>
        <time>2022-04-10T09:42:22.051Z</time>
      </trkpt>
      <trkpt lat="42.16555" lon="22.08891">
        <ele>574.067446</ele>
        <time>2022-04-10T09:43:17.033Z</time>
      </trkpt>
      <trkpt lat="42.16355" lon="22.0874">
        <ele>559.746915</ele>
        <time>2022-04-10T09:44:10.051Z</time>
      </trkpt>
      <trkpt lat="42.16232" lon="22.0852">
        <ele>557.298983</ele>
        <time>2022-04-10T09:45:12.043Z</time>
      </trkpt>
      <trkpt lat="42.16346" lon="22.08366">
        <ele>563.642888</ele>
        <time>2022-04-10T09:47:12.053Z</time>
      </trkpt>
      <trkpt lat="42.16404" lon="22.0814">
        <ele>577.20282</ele>
        <time>2022-04-10T09:49:28.050Z</time>
      </trkpt>
      <trkpt lat="42.16397" lon="22.07865">
        <ele>592.261957</ele>
        <time>2022-04-10T09:51:31.053Z</time>
      </trkpt>
      <trkpt lat="42.16298" lon="22.07616">
        <ele>572.408015</ele>
        <time>2022-04-10T09:52:15.044Z</time>
      </trkpt>
      <trkpt lat="42.16128" lon="22.0747">
        <ele>547.772571</ele>
        <time>2022-04-10T09:53:08.047Z</time>
      </trkpt>
      <trkpt lat="42.16031" lon="22.07217">
        <ele>557.729569</ele>
        <time>2022-04-10T09:54:12.059Z</time>
      </trkpt>
      <trkpt lat="42.16069" lon="22.0694">
        <ele>573.546565</ele>
        <time>2022-04-10T09:56:25.092Z</time>
      </trkpt>
      <trkpt lat="42.16044" lon="22.06694">
        <ele>584.166374</ele>
        <time>2022-04-10T09:58:42.042Z</time>
      </trkpt>
      <trkpt lat="42.16011" lon="22.06446">
        <ele>596.966379</ele>
        <time>2022-04-10T10:01:09.065Z</time>
      </trkpt>
      <trkpt lat="42.15993" lon="22.06199">
        <ele>607.212849</ele>
        <time>2022-04-10T10:03:53.064Z</time>
      </trkpt>
      <trkpt lat="42.15907" lon="22.06089">
        <ele>623.794486</ele>
        <time>2022-04-10T10:06:40.049Z</time>
      </trkpt>
      <trkpt lat="42.15814" lon="22.05867">
        <ele>642.448222</ele>
        <time>2022-04-10T10:09:19.065Z</time>
      </trkpt>
      <trkpt lat="42.15776" lon="22.05606">
        <ele>648.484598</ele>
        <time>2022-04-10T10:11:47.059Z</time>
      </trkpt>
      <trkpt lat="42.15652" lon="22.05409">
        <ele>640.295185</ele>
        <time>2022-04-10T10:13:29.047Z</time>
      </trkpt>
      <trkpt lat="42.15634" lon="22.05319">
        <ele>644.159716</ele>
        <time>2022-04-10T10:14:44.057Z</time>
      </trkpt>
      <trkpt lat="42.15567" lon="22.05131">
        <ele>651.370795</ele>
        <time>2022-04-10T10:17:00.045Z</time>
      </trkpt>
      <trkpt lat="42.1547" lon="22.04894">
        <ele>665.388143</ele>
        <time>2022-04-10T10:19:24.062Z</time>
      </trkpt>
      <trkpt lat="42.15369" lon="22.04674">
        <ele>672.940803</ele>
        <time>2022-04-10T10:21:34.055Z</time>
      </trkpt>
      <trkpt lat="42.15249" lon="22.04467">
        <ele>686.051848</ele>
        <time>2022-04-10T10:23:57.052Z</time>
      </trkpt>
      <trkpt lat="42.15229" lon="22.04211">
        <ele>698.562485</ele>
        <time>2022-04-10T10:26:19.058Z</time>
      </trkpt>
      <trkpt lat="42.15206" lon="22.03944">
        <ele>712.327586</ele>
        <time>2022-04-10T10:29:15.038Z</time>
      </trkpt>
      <trkpt lat="42.15124" lon="22.03712">
        <ele>727.8247</ele>
        <time>2022-04-10T10:31:56.053Z</time>
      </trkpt>
      <trkpt lat="42.15045" lon="22.03466">
        <ele>736.225598</ele>
        <time>2022-04-10T10:34:45.034Z</time>
      </trkpt>
      <trkpt lat="42.1496" lon="22.03328">
        <ele>729.497774</ele>
        <time>2022-04-10T10:37:14.065Z</time>
      </trkpt>
      <trkpt lat="42.14935" lon="22.02984">
        <ele>715.072323</ele>
        <time>2022-04-10T10:38:05.066Z</time>
      </trkpt>
      <trkpt lat="42.14902" lon="22.02688">
        <ele>702.182902</ele>
        <time>2022-04-10T10:38:29.062Z</time>
      </trkpt>
      <trkpt lat="42.14835" lon="22.02392">
        <ele>693.329185</ele>
        <time>2022-04-10T10:38:54.070Z</time>
      </trkpt>
      <trkpt lat="42.14795" lon="22.02058">
        <ele>692.056974</ele>
        <time>2022-04-10T10:39:38.059Z</time>
      </trkpt>
      <trkpt lat="42.14759" lon="22.01721">
        <ele>690.70797</ele>
        <time>2022-04-10T10:40:38.104Z</time>
      </trkpt>
      <trkpt lat="42.14716" lon="22.01381">
        <ele>685.983908</ele>
        <time>2022-04-10T10:41:18.087Z</time>
      </trkpt>
      <trkpt lat="42.14664" lon="22.00935">
        <ele>671.572376</ele>
        <time>2022-04-10T10:42:00.054Z</time>
      </trkpt>
      <trkpt lat="42.14618" lon="22.00521">
        <ele>661.46349</ele>
        <time>2022-04-10T10:42:36.066Z</time>
      </trkpt>
      <trkpt lat="42.14733" lon="22.00179">
        <ele>653.578984</ele>
        <time>2022-04-10T10:43:18.054Z</time>
      </trkpt>
      <trkpt lat="42.14885" lon="21.99942">
        <ele>648.474488</ele>
        <time>2022-04-10T11:16:30.095Z</time>
      </trkpt>
      <trkpt lat="42.14806" lon="21.99625">
        <ele>634.844299</ele>
        <time>2022-04-10T11:17:12.049Z</time>
      </trkpt>
      <trkpt lat="42.1457" lon="21.9948">
        <ele>628.002044</ele>
        <time>2022-04-10T11:17:52.069Z</time>
      </trkpt>
      <trkpt lat="42.1449" lon="21.99129">
        <ele>610.466891</ele>
        <time>2022-04-10T11:18:34.081Z</time>
      </trkpt>
      <trkpt lat="42.14645" lon="21.98866">
        <ele>599.113155</ele>
        <time>2022-04-10T11:19:14.078Z</time>
      </trkpt>
      <trkpt lat="42.14856" lon="21.98702">
        <ele>596.516495</ele>
        <time>2022-04-10T11:20:13.082Z</time>
      </trkpt>
      <trkpt lat="42.14974" lon="21.98468">
        <ele>598.373255</ele>
        <time>2022-04-10T11:21:23.073Z</time>
      </trkpt>
      <trkpt lat="42.14895" lon="21.98193">
        <ele>604.35994</ele>
        <time>2022-04-10T11:22:43.067Z</time>
      </trkpt>
      <trkpt lat="42.14759" lon="21.97988">
        <ele>606.93038</ele>
        <time>2022-04-10T11:24:03.118Z</time>
      </trkpt>
      <trkpt lat="42.14758" lon="21.97684">
        <ele>607.485173</ele>
        <time>2022-04-10T11:25:26.077Z</time>
      </trkpt>
      <trkpt lat="42.14735" lon="21.97507">
        <ele>601.223862</ele>
        <time>2022-04-10T11:26:15.090Z</time>
      </trkpt>
      <trkpt lat="42.14788" lon="21.97198">
        <ele>594.98111</ele>
        <time>2022-04-10T11:27:13.088Z</time>
      </trkpt>
      <trkpt lat="42.14839" lon="21.96888">
        <ele>592.169329</ele>
        <time>2022-04-10T11:28:09.081Z</time>
      </trkpt>
      <trkpt lat="42.14885" lon="21.9661">
        <ele>591.505681</ele>
        <time>2022-04-10T11:29:13.073Z</time>
      </trkpt>
      <trkpt lat="42.14933" lon="21.96321">
        <ele>587.456312</ele>
        <time>2022-04-10T11:30:14.068Z</time>
      </trkpt>
      <trkpt lat="42.14983" lon="21.96044">
        <ele>572.229128</ele>
        <time>2022-04-10T11:30:56.071Z</time>
      </trkpt>
      <trkpt lat="42.15026" lon="21.9578">
        <ele>557.753279</ele>
        <time>2022-04-10T11:31:38.084Z</time>
      </trkpt>
      <trkpt lat="42.15071" lon="21.95499">
        <ele>546.307922</ele>
        <time>2022-04-10T11:32:20.098Z</time>
      </trkpt>
      <trkpt lat="42.15134" lon="21.95256">
        <ele>535.845356</ele>
        <time>2022-04-10T11:33:03.076Z</time>
      </trkpt>
      <trkpt lat="42.15099" lon="21.95074">
        <ele>520.236467</ele>
        <time>2022-04-10T11:33:51.076Z</time>
      </trkpt>
      <trkpt lat="42.15199" lon="21.94902">
        <ele>528.940391</ele>
        <time>2022-04-10T11:35:31.078Z</time>
      </trkpt>
      <trkpt lat="42.15363" lon="21.94748">
        <ele>540.782361</ele>
        <time>2022-04-10T11:37:41.100Z</time>
      </trkpt>
      <trkpt lat="42.15392" lon="21.94551">
        <ele>549.337953</ele>
        <time>2022-04-10T11:39:59.054Z</time>
      </trkpt>
      <trkpt lat="42.15437" lon="21.94262">
        <ele>546.730406</ele>
        <time>2022-04-10T11:41:17.076Z</time>
      </trkpt>
      <trkpt lat="42.15531" lon="21.93999">
        <ele>538.973631</ele>
        <time>2022-04-10T11:42:04.067Z</time>
      </trkpt>
      <trkpt lat="42.1568" lon="21.93875">
        <ele>545.850664</ele>
        <time>2022-04-10T11:43:55.086Z</time>
      </trkpt>
      <trkpt lat="42.15742" lon="21.93615">
        <ele>538.13889</ele>
        <time>2022-04-10T11:45:04.087Z</time>
      </trkpt>
      <trkpt lat="42.15954" lon="21.93534">
        <ele>523.213495</ele>
        <time>2022-04-10T11:52:12.089Z</time>
      </trkpt>
      <trkpt lat="42.15964" lon="21.93353">
        <ele>521.647321</ele>
        <time>2022-04-10T11:53:31.120Z</time>
      </trkpt>
      <trkpt lat="42.15973" lon="21.93064">
        <ele>520.865901</ele>
        <time>2022-04-10T11:54:47.087Z</time>
      </trkpt>
      <trkpt lat="42.1601" lon="21.92802">
        <ele>521.872855</ele>
        <time>2022-04-10T11:56:19.114Z</time>
      </trkpt>
      <trkpt lat="42.16065" lon="21.92506">
        <ele>520.397323</ele>
        <time>2022-04-10T11:57:27.081Z</time>
      </trkpt>
      <trkpt lat="42.16059" lon="21.92216">
        <ele>513.327839</ele>
        <time>2022-04-10T11:58:37.082Z</time>
      </trkpt>
      <trkpt lat="42.16165" lon="21.91959">
        <ele>499.51705</ele>
        <time>2022-04-10T11:59:43.099Z</time>
      </trkpt>
      <trkpt lat="42.16281" lon="21.91719">
        <ele>487.383819</ele>
        <time>2022-04-10T12:00:53.115Z</time>
      </trkpt>
      <trkpt lat="42.16397" lon="21.91479">
        <ele>487.537134</ele>
        <time>2022-04-10T12:02:23.080Z</time>
      </trkpt>
      <trkpt lat="42.16499" lon="21.91256">
        <ele>495.374395</ele>
        <time>2022-04-10T12:04:25.098Z</time>
      </trkpt>
      <trkpt lat="42.16633" lon="21.90979">
        <ele>489.636533</ele>
        <time>2022-04-10T12:05:31.085Z</time>
      </trkpt>
      <trkpt lat="42.16753" lon="21.90728">
        <ele>480.753159</ele>
        <time>2022-04-10T12:06:23.093Z</time>
      </trkpt>
      <trkpt lat="42.16747" lon="21.90446">
        <ele>468.384141</ele>
        <time>2022-04-10T12:07:11.090Z</time>
      </trkpt>
      <trkpt lat="42.1672" lon="21.90164">
        <ele>458.757072</ele>
        <time>2022-04-10T12:08:21.066Z</time>
      </trkpt>
      <trkpt lat="42.16729" lon="21.89879">
        <ele>449.524544</ele>
        <time>2022-04-10T12:09:46.085Z</time>
      </trkpt>
      <trkpt lat="42.16727" lon="21.89598">
        <ele>441.130882</ele>
        <time>2022-04-10T12:11:02.084Z</time>
      </trkpt>
      <trkpt lat="42.16732" lon="21.89285">
        <ele>428.369945</ele>
        <time>2022-04-10T12:11:53.087Z</time>
      </trkpt>
      <trkpt lat="42.16676" lon="21.89019">
        <ele>418.734987</ele>
        <time>2022-04-10T12:12:41.110Z</time>
      </trkpt>
      <trkpt lat="42.16608" lon="21.88753">
        <ele>403.362448</ele>
        <time>2022-04-10T12:13:52.092Z</time>
      </trkpt>
      <trkpt lat="42.16588" lon="21.88491">
        <ele>387.121249</ele>
        <time>2022-04-10T12:14:59.093Z</time>
      </trkpt>
      <trkpt lat="42.16383" lon="21.88389">
        <ele>371.205336</ele>
        <time>2022-04-10T12:16:12.095Z</time>
      </trkpt>
      <trkpt lat="42.16389" lon="21.88299">
        <ele>371.496219</ele>
        <time>2022-04-10T12:21:15.075Z</time>
      </trkpt>
      <trkpt lat="42.16309" lon="21.88037">
        <ele>378.692646</ele>
        <time>2022-04-10T12:23:06.082Z</time>
      </trkpt>
      <trkpt lat="42.16239" lon="21.87785">
        <ele>380.438126</ele>
        <time>2022-04-10T12:24:26.091Z</time>
      </trkpt>
      <trkpt lat="42.1617" lon="21.87517">
        <ele>380.794018</ele>
        <time>2022-04-10T12:25:37.128Z</time>
      </trkpt>
      <trkpt lat="42.16105" lon="21.87244">
        <ele>375.74168</ele>
        <time>2022-04-10T12:26:39.085Z</time>
      </trkpt>
      <trkpt lat="42.1621" lon="21.87069">
        <ele>359.97027</ele>
        <time>2022-04-10T12:27:56.080Z</time>
      </trkpt>
      <trkpt lat="42.16256" lon="21.86788">
        <ele>352.961404</ele>
        <time>2022-04-10T12:29:01.084Z</time>
      </trkpt>
      <trkpt lat="42.16246" lon="21.86492">
        <ele>355.112236</ele>
        <time>2022-04-10T12:30:01.088Z</time>
      </trkpt>
      <trkpt lat="42.16249" lon="21.86201">
        <ele>359.122562</ele>
        <time>2022-04-10T12:31:24.089Z</time>
      </trkpt>
      <trkpt lat="42.1628" lon="21.85938">
        <ele>364.184275</ele>
        <time>2022-04-10T12:32:55.127Z</time>
      </trkpt>
      <trkpt lat="42.16335" lon="21.8566">
        <ele>365.291468</ele>
        <time>2022-04-10T12:34:16.095Z</time>
      </trkpt>
      <trkpt lat="42.16387" lon="21.85392">
        <ele>369.321804</ele>
        <time>2022-04-10T12:35:40.100Z</time>
      </trkpt>
      <trkpt lat="42.16439" lon="21.85122">
        <ele>377.891451</ele>
        <time>2022-04-10T12:37:30.095Z</time>
      </trkpt>
      <trkpt lat="42.16485" lon="21.84867">
        <ele>396.711249</ele>
        <time>2022-04-10T12:40:11.099Z</time>
      </trkpt>
      <trkpt lat="42.16537" lon="21.84599">
        <ele>410.246829</ele>
        <time>2022-04-10T12:42:47.115Z</time>
      </trkpt>
      <trkpt lat="42.16586" lon="21.84326">
        <ele>411.608809</ele>
        <time>2022-04-10T12:44:13.132Z</time>
      </trkpt>
      <trkpt lat="42.16642" lon="21.84056">
        <ele>418.261339</ele>
        <time>2022-04-10T12:46:02.101Z</time>
      </trkpt>
      <trkpt lat="42.16697" lon="21.83794">
        <ele>423.174818</ele>
        <time>2022-04-10T12:47:54.114Z</time>
      </trkpt>
      <trkpt lat="42.16751" lon="21.83518">
        <ele>433.716493</ele>
        <time>2022-04-10T12:49:49.084Z</time>
      </trkpt>
      <trkpt lat="42.168" lon="21.83268">
        <ele>440.672509</ele>
        <time>2022-04-10T12:52:08.097Z</time>
      </trkpt>
      <trkpt lat="42.16851" lon="21.83005">
        <ele>450.632053</ele>
        <time>2022-04-10T12:54:23.117Z</time>
      </trkpt>
      <trkpt lat="42.16902" lon="21.8275">
        <ele>458.949343</ele>
        <time>2022-04-10T12:56:32.099Z</time>
      </trkpt>
      <trkpt lat="42.16953" lon="21.82481">
        <ele>468.867809</ele>
        <time>2022-04-10T12:58:51.107Z</time>
      </trkpt>
      <trkpt lat="42.17003" lon="21.82235">
        <ele>477.268855</ele>
        <time>2022-04-10T13:01:32.097Z</time>
      </trkpt>
      <trkpt lat="42.17053" lon="21.81953">
        <ele>477.743562</ele>
        <time>2022-04-10T13:03:01.102Z</time>
      </trkpt>
      <trkpt lat="42.17107" lon="21.8169">
        <ele>479.112962</ele>
        <time>2022-04-10T13:04:07.106Z</time>
      </trkpt>
      <trkpt lat="42.17164" lon="21.81426">
        <ele>480.139336</ele>
        <time>2022-04-10T13:06:10.099Z</time>
      </trkpt>
      <trkpt lat="42.17233" lon="21.8115">
        <ele>476.953157</ele>
        <time>2022-04-10T13:10:45.118Z</time>
      </trkpt>
      <trkpt lat="42.17307" lon="21.80874">
        <ele>471.681648</ele>
        <time>2022-04-10T13:11:57.104Z</time>
      </trkpt>
      <trkpt lat="42.17443" lon="21.80636">
        <ele>455.906637</ele>
        <time>2022-04-10T13:12:51.093Z</time>
      </trkpt>
      <trkpt lat="42.17377" lon="21.80409">
        <ele>444.359886</ele>
        <time>2022-04-10T13:13:53.126Z</time>
      </trkpt>
      <trkpt lat="42.17347" lon="21.80137">
        <ele>436.961642</ele>
        <time>2022-04-10T13:15:11.106Z</time>
      </trkpt>
      <trkpt lat="42.17344" lon="21.79859">
        <ele>448.570944</ele>
        <time>2022-04-10T13:17:29.147Z</time>
      </trkpt>
      <trkpt lat="42.17343" lon="21.79591">
        <ele>454.590815</ele>
        <time>2022-04-10T13:19:10.090Z</time>
      </trkpt>
      <trkpt lat="42.17308" lon="21.79308">
        <ele>454.696374</ele>
        <time>2022-04-10T13:20:26.116Z</time>
      </trkpt>
      <trkpt lat="42.17337" lon="21.79069">
        <ele>458.594986</ele>
        <time>2022-04-10T13:24:58.113Z</time>
      </trkpt>
      <trkpt lat="42.17419" lon="21.78801">
        <ele>454.656286</ele>
        <time>2022-04-10T13:25:47.112Z</time>
      </trkpt>
      <trkpt lat="42.17335" lon="21.78585">
        <ele>463.123888</ele>
        <time>2022-04-10T13:27:38.112Z</time>
      </trkpt>
      <trkpt lat="42.17308" lon="21.78322">
        <ele>474.981197</ele>
        <time>2022-04-10T13:30:19.119Z</time>
      </trkpt>
      <trkpt lat="42.17201" lon="21.78096">
        <ele>478.74145</ele>
        <time>2022-04-10T13:36:48.147Z</time>
      </trkpt>
      <trkpt lat="42.17145" lon="21.77896">
        <ele>475.063906</ele>
        <time>2022-04-10T13:37:52.144Z</time>
      </trkpt>
      <trkpt lat="42.17055" lon="21.77675">
        <ele>484.21202</ele>
        <time>2022-04-10T13:39:47.121Z</time>
      </trkpt>
      <trkpt lat="42.16985" lon="21.77423">
        <ele>497.621285</ele>
        <time>2022-04-10T13:42:12.108Z</time>
      </trkpt>
      <trkpt lat="42.16917" lon="21.77174">
        <ele>504.393584</ele>
        <time>2022-04-10T13:44:22.122Z</time>
      </trkpt>
      <trkpt lat="42.16831" lon="21.76864">
        <ele>496.035397</ele>
        <time>2022-04-10T13:45:18.118Z</time>
      </trkpt>
      <trkpt lat="42.16754" lon="21.76577">
        <ele>485.249126</ele>
        <time>2022-04-10T13:46:03.122Z</time>
      </trkpt>
      <trkpt lat="42.16665" lon="21.76252">
        <ele>479.261744</ele>
        <time>2022-04-10T13:46:48.155Z</time>
      </trkpt>
      <trkpt lat="42.16572" lon="21.75971">
        <ele>480.271428</ele>
        <time>2022-04-10T13:48:02.116Z</time>
      </trkpt>
      <trkpt lat="42.16434" lon="21.7578">
        <ele>491.533751</ele>
        <time>2022-04-10T13:50:39.128Z</time>
      </trkpt>
      <trkpt lat="42.16319" lon="21.75492">
        <ele>488.760241</ele>
        <time>2022-04-10T13:51:30.118Z</time>
      </trkpt>
      <trkpt lat="42.16192" lon="21.7518">
        <ele>481.933385</ele>
        <time>2022-04-10T13:52:12.126Z</time>
      </trkpt>
      <trkpt lat="42.16086" lon="21.7491">
        <ele>476.850174</ele>
        <time>2022-04-10T13:53:10.100Z</time>
      </trkpt>
      <trkpt lat="42.15948" lon="21.74568">
        <ele>463.775667</ele>
        <time>2022-04-10T13:53:53.107Z</time>
      </trkpt>
      <trkpt lat="42.15833" lon="21.74285">
        <ele>452.055369</ele>
        <time>2022-04-10T13:54:36.109Z</time>
      </trkpt>
      <trkpt lat="42.157" lon="21.73958">
        <ele>439.278694</ele>
        <time>2022-04-10T13:55:26.124Z</time>
      </trkpt>
      <trkpt lat="42.1559" lon="21.73673">
        <ele>432.783327</ele>
        <time>2022-04-10T13:56:09.131Z</time>
      </trkpt>
      <trkpt lat="42.15488" lon="21.73423">
        <ele>441.357941</ele>
        <time>2022-04-10T13:58:00.133Z</time>
      </trkpt>
      <trkpt lat="42.15385" lon="21.73171">
        <ele>441.410966</ele>
        <time>2022-04-10T13:59:05.121Z</time>
      </trkpt>
      <trkpt lat="42.15226" lon="21.72928">
        <ele>426.468896</ele>
        <time>2022-04-10T13:59:47.126Z</time>
      </trkpt>
      <trkpt lat="42.14979" lon="21.72796">
        <ele>415.222911</ele>
        <time>2022-04-10T14:00:27.158Z</time>
      </trkpt>
      <trkpt lat="42.14771" lon="21.72641">
        <ele>406.639512</ele>
        <time>2022-04-10T14:01:09.139Z</time>
      </trkpt>
      <trkpt lat="42.14586" lon="21.72452">
        <ele>396.444187</ele>
        <time>2022-04-10T14:01:50.126Z</time>
      </trkpt>
      <trkpt lat="42.14364" lon="21.72284">
        <ele>382.522458</ele>
        <time>2022-04-10T14:02:32.135Z</time>
      </trkpt>
      <trkpt lat="42.14179" lon="21.72063">
        <ele>371.284903</ele>
        <time>2022-04-10T14:03:29.137Z</time>
      </trkpt>
      <trkpt lat="42.14013" lon="21.72012">
        <ele>375.96711</ele>
        <time>2022-04-10T14:04:54.122Z</time>
      </trkpt>
      <trkpt lat="42.13979" lon="21.72102">
        <ele>375.96711</ele>
        <time>2022-04-10T14:14:41.397Z</time>
      </trkpt>
    </trkseg>
  </trk>
</gpx>